GCGM

La Gomera Airport

Airport
ICAO code
GCGM
IATA Code
GMZ
Summary
ICAO Region
EUR
ICAO Territory
Location

Playa Santiago, La Gomera, Canary Islands

Serving
San Sebastián de la Gomera
Elevation
716 ft
Coordinates
28° 1' 50" N , 17° 12' 45" W
KCC
Metar
Observation
GCGM 062230Z AUTO VRB07KT 9999 SCT042 BKN050 BKN060 16/08 Q1023 RMK R09/04004KT 320V090 ARP/03007KT 340V090
Station
La Gomera
Date/Time
2023-02-06 22:30:00
Wind speed
07 kts
Lowest cloud amount
scattered clouds
Temperature
16°C
Dew point
8°C
Humidity
59%
QNH
1023 hPa
Weather condition
n/a

La Gomera Airport is the only airport on the small island of La Gomera in the Canary Islands which is situated to the west of Tenerife.

Climatology

Dry-summer subtropical ”Mediterranean" climate (Köppen climate classification Csa) - characterized by hot, dry summers and mild winters. During the summer, subtropical high pressure cells dominate, making rainfall unlikely except for the occasional thunderstorm. In the winter, periodic storms bring rain (snow at higher elevations).

Runways

Designator Length Width Surface Rops
9/27 1500 30 ASP No/No

Airport map

Aerial View

SKYbrary Partners:

Safety knowledge contributed by: